sensor_id;sensor_type;location;lat;lon;timestamp;pressure;altitude;pressure_sealevel;temperature;humidity
19150;BME280;9707;49.158;8.632;2024-02-26T00:01:36;98458.69;;;20.28;35.63
19150;BME280;9707;49.158;8.632;2024-02-26T00:04:01;98467.81;;;20.27;35.27
19150;BME280;9707;49.158;8.632;2024-02-26T00:06:28;98468.16;;;20.24;34.05
19150;BME280;9707;49.158;8.632;2024-02-26T00:08:53;98464.94;;;20.20;33.49
19150;BME280;9707;49.158;8.632;2024-02-26T00:11:18;98473.34;;;20.17;33.50
19150;BME280;9707;49.158;8.632;2024-02-26T00:13:44;98481.81;;;20.14;34.94
19150;BME280;9707;49.158;8.632;2024-02-26T00:16:09;98484.69;;;20.13;35.76
19150;BME280;9707;49.158;8.632;2024-02-26T00:18:34;98487.38;;;20.13;35.50
19150;BME280;9707;49.158;8.632;2024-02-26T00:20:59;98487.38;;;20.13;35.92
19150;BME280;9707;49.158;8.632;2024-02-26T00:23:25;98490.09;;;20.13;36.27
19150;BME280;9707;49.158;8.632;2024-02-26T00:25:52;98483.66;;;20.14;35.38
19150;BME280;9707;49.158;8.632;2024-02-26T00:28:17;98489.78;;;20.16;36.29
19150;BME280;9707;49.158;8.632;2024-02-26T00:30:42;98497.88;;;20.16;35.68
19150;BME280;9707;49.158;8.632;2024-02-26T00:33:07;98503.28;;;20.16;34.76
19150;BME280;9707;49.158;8.632;2024-02-26T00:35:33;98505.28;;;20.14;33.87
19150;BME280;9707;49.158;8.632;2024-02-26T00:37:58;98508.34;;;20.11;33.74
19150;BME280;9707;49.158;8.632;2024-02-26T00:40:24;98513.03;;;20.09;34.03
19150;BME280;9707;49.158;8.632;2024-02-26T00:42:50;98519.47;;;20.08;34.50
19150;BME280;9707;49.158;8.632;2024-02-26T00:45:15;98505.25;;;20.06;33.93
19150;BME280;9707;49.158;8.632;2024-02-26T00:47:41;98505.94;;;20.08;35.29
19150;BME280;9707;49.158;8.632;2024-02-26T00:50:08;98515.03;;;20.07;35.89
19150;BME280;9707;49.158;8.632;2024-02-26T00:52:34;98516.75;;;20.08;36.18
19150;BME280;9707;49.158;8.632;2024-02-26T00:54:59;98518.44;;;20.09;36.16
19150;BME280;9707;49.158;8.632;2024-02-26T00:57:25;98512.03;;;20.10;36.00
19150;BME280;9707;49.158;8.632;2024-02-26T00:59:50;98525.38;;;20.11;36.04
19150;BME280;9707;49.158;8.632;2024-02-26T01:02:15;98522.84;;;20.10;34.72
19150;BME280;9707;49.158;8.632;2024-02-26T01:04:41;98530.94;;;20.10;35.90
19150;BME280;9707;49.158;8.632;2024-02-26T01:07:06;98526.56;;;20.09;34.30
19150;BME280;9707;49.158;8.632;2024-02-26T01:09:31;98536.66;;;20.07;35.69
19150;BME280;9707;49.158;8.632;2024-02-26T01:11:56;98525.84;;;20.07;35.54
19150;BME280;9707;49.158;8.632;2024-02-26T01:14:22;98538.38;;;20.08;36.29
19150;BME280;9707;49.158;8.632;2024-02-26T01:16:47;98533.66;;;20.10;35.12
19150;BME280;9707;49.158;8.632;2024-02-26T01:19:12;98516.75;;;20.08;35.27
19150;BME280;9707;49.158;8.632;2024-02-26T01:21:38;98521.31;;;20.07;34.75
19150;BME280;9707;49.158;8.632;2024-02-26T01:24:03;98531.41;;;20.05;34.25
19150;BME280;9707;49.158;8.632;2024-02-26T01:26:28;98530.75;;;20.03;35.58
19150;BME280;9707;49.158;8.632;2024-02-26T01:28:54;98520.91;;;20.02;34.27
19150;BME280;9707;49.158;8.632;2024-02-26T01:31:20;98524.78;;;20.00;33.77
19150;BME280;9707;49.158;8.632;2024-02-26T01:33:45;98525.97;;;19.97;33.36
19150;BME280;9707;49.158;8.632;2024-02-26T01:36:11;98522.75;;;19.94;33.77
19150;BME280;9707;49.158;8.632;2024-02-26T01:38:36;98521.91;;;19.93;34.33
19150;BME280;9707;49.158;8.632;2024-02-26T01:41:02;98517.34;;;19.94;34.79
19150;BME280;9707;49.158;8.632;2024-02-26T01:43:27;98528.00;;;19.95;35.90
19150;BME280;9707;49.158;8.632;2024-02-26T01:45:53;98524.28;;;19.96;35.36
19150;BME280;9707;49.158;8.632;2024-02-26T01:48:18;98521.41;;;19.98;35.99
19150;BME280;9707;49.158;8.632;2024-02-26T01:50:44;98522.28;;;19.98;34.76
19150;BME280;9707;49.158;8.632;2024-02-26T01:53:09;98531.56;;;19.96;34.68
19150;BME280;9707;49.158;8.632;2024-02-26T01:55:35;98540.66;;;19.95;34.96
19150;BME280;9707;49.158;8.632;2024-02-26T01:58:01;98553.19;;;19.96;35.09
19150;BME280;9707;49.158;8.632;2024-02-26T02:00:27;98558.72;;;19.94;34.74
19150;BME280;9707;49.158;8.632;2024-02-26T02:02:53;98559.91;;;19.92;34.58
19150;BME280;9707;49.158;8.632;2024-02-26T02:05:20;98570.72;;;19.92;35.19
19150;BME280;9707;49.158;8.632;2024-02-26T02:07:46;98560.06;;;19.90;35.19
19150;BME280;9707;49.158;8.632;2024-02-26T02:10:13;98559.19;;;19.90;34.99
19150;BME280;9707;49.158;8.632;2024-02-26T02:12:39;98558.38;;;19.89;34.95
19150;BME280;9707;49.158;8.632;2024-02-26T02:15:05;98571.03;;;19.89;35.19
19150;BME280;9707;49.158;8.632;2024-02-26T02:17:31;98564.94;;;19.87;34.99
19150;BME280;9707;49.158;8.632;2024-02-26T02:19:56;98559.69;;;19.85;35.04
19150;BME280;9707;49.158;8.632;2024-02-26T02:22:22;98564.25;;;19.85;35.29
19150;BME280;9707;49.158;8.632;2024-02-26T02:24:48;98550.91;;;19.83;35.17
19150;BME280;9707;49.158;8.632;2024-02-26T02:27:13;98556.47;;;19.82;35.19
19150;BME280;9707;49.158;8.632;2024-02-26T02:29:39;98564.59;;;19.82;35.62
19150;BME280;9707;49.158;8.632;2024-02-26T02:32:04;98552.09;;;19.81;35.53
19150;BME280;9707;49.158;8.632;2024-02-26T02:34:31;98556.63;;;19.80;35.53
19150;BME280;9707;49.158;8.632;2024-02-26T02:36:57;98541.28;;;19.81;36.22
19150;BME280;9707;49.158;8.632;2024-02-26T02:39:22;98545.66;;;19.82;36.69
19150;BME280;9707;49.158;8.632;2024-02-26T02:41:47;98544.66;;;19.83;36.10
19150;BME280;9707;49.158;8.632;2024-02-26T02:44:13;98540.94;;;19.84;36.57
19150;BME280;9707;49.158;8.632;2024-02-26T02:46:38;98557.00;;;19.85;36.27
19150;BME280;9707;49.158;8.632;2024-02-26T02:49:04;98550.91;;;19.83;35.85
19150;BME280;9707;49.158;8.632;2024-02-26T02:51:29;98555.47;;;19.83;35.27
19150;BME280;9707;49.158;8.632;2024-02-26T02:53:54;98555.78;;;19.80;35.55
19150;BME280;9707;49.158;8.632;2024-02-26T02:56:20;98559.50;;;19.79;35.66
19150;BME280;9707;49.158;8.632;2024-02-26T02:58:45;98557.81;;;19.78;35.87
19150;BME280;9707;49.158;8.632;2024-02-26T03:01:10;98559.81;;;19.76;36.19
19150;BME280;9707;49.158;8.632;2024-02-26T03:03:36;98562.53;;;19.76;36.38
19150;BME280;9707;49.158;8.632;2024-02-26T03:06:02;98558.97;;;19.75;35.75
19150;BME280;9707;49.158;8.632;2024-02-26T03:08:28;98551.88;;;19.74;36.48
19150;BME280;9707;49.158;8.632;2024-02-26T03:10:54;98558.16;;;19.75;36.04
19150;BME280;9707;49.158;8.632;2024-02-26T03:13:19;98553.72;;;19.74;35.88
19150;BME280;9707;49.158;8.632;2024-02-26T03:15:44;98551.03;;;19.74;35.92
19150;BME280;9707;49.158;8.632;2024-02-26T03:18:09;98554.72;;;19.73;36.06
19150;BME280;9707;49.158;8.632;2024-02-26T03:20:35;98551.88;;;19.74;36.31
19150;BME280;9707;49.158;8.632;2024-02-26T03:23:00;98546.63;;;19.73;36.16
19150;BME280;9707;49.158;8.632;2024-02-26T03:25:25;98545.63;;;19.74;36.39
19150;BME280;9707;49.158;8.632;2024-02-26T03:27:50;98545.47;;;19.75;37.02
19150;BME280;9707;49.158;8.632;2024-02-26T03:30:16;98543.63;;;19.76;36.43
19150;BME280;9707;49.158;8.632;2024-02-26T03:32:41;98540.72;;;19.77;36.45
19150;BME280;9707;49.158;8.632;2024-02-26T03:35:06;98536.19;;;19.78;36.78
19150;BME280;9707;49.158;8.632;2024-02-26T03:37:33;98537.88;;;19.79;36.85
19150;BME280;9707;49.158;8.632;2024-02-26T03:40:01;98535.03;;;19.80;37.05
19150;BME280;9707;49.158;8.632;2024-02-26T03:42:27;98526.91;;;19.80;37.12
19150;BME280;9707;49.158;8.632;2024-02-26T03:44:52;98525.06;;;19.81;37.15
19150;BME280;9707;49.158;8.632;2024-02-26T03:47:18;98531.16;;;19.83;37.09
19150;BME280;9707;49.158;8.632;2024-02-26T03:49:43;98527.44;;;19.84;37.06
19150;BME280;9707;49.158;8.632;2024-02-26T03:52:08;98518.50;;;19.83;37.06
19150;BME280;9707;49.158;8.632;2024-02-26T03:54:34;98521.00;;;19.85;37.21
19150;BME280;9707;49.158;8.632;2024-02-26T03:56:59;98512.75;;;19.86;37.27
19150;BME280;9707;49.158;8.632;2024-02-26T03:59:24;98508.22;;;19.87;37.25
19150;BME280;9707;49.158;8.632;2024-02-26T04:01:50;98504.50;;;19.88;36.90
19150;BME280;9707;49.158;8.632;2024-02-26T04:04:15;98501.63;;;19.89;36.51
19150;BME280;9707;49.158;8.632;2024-02-26T04:06:44;98500.78;;;19.89;36.79
19150;BME280;9707;49.158;8.632;2024-02-26T04:09:10;98491.66;;;19.90;37.07
19150;BME280;9707;49.158;8.632;2024-02-26T04:11:36;98491.66;;;19.90;37.34
19150;BME280;9707;49.158;8.632;2024-02-26T04:14:01;98476.13;;;19.92;36.99
19150;BME280;9707;49.158;8.632;2024-02-26T04:16:28;98480.53;;;19.93;37.07
19150;BME280;9707;49.158;8.632;2024-02-26T04:18:53;98477.66;;;19.94;36.98
19150;BME280;9707;49.158;8.632;2024-02-26T04:21:19;98478.50;;;19.95;37.14
19150;BME280;9707;49.158;8.632;2024-02-26T04:23:44;98478.50;;;19.95;37.03
19150;BME280;9707;49.158;8.632;2024-02-26T04:26:10;98476.81;;;19.94;37.01
19150;BME280;9707;49.158;8.632;2024-02-26T04:28:35;98473.59;;;19.90;37.10
19150;BME280;9707;49.158;8.632;2024-02-26T04:31:01;98475.44;;;19.90;37.02
19150;BME280;9707;49.158;8.632;2024-02-26T04:33:26;98471.75;;;19.91;37.30
19150;BME280;9707;49.158;8.632;2024-02-26T04:35:52;98464.31;;;19.93;37.25
19150;BME280;9707;49.158;8.632;2024-02-26T04:38:17;98470.56;;;19.93;37.26
19150;BME280;9707;49.158;8.632;2024-02-26T04:40:42;98465.00;;;19.95;37.38
19150;BME280;9707;49.158;8.632;2024-02-26T04:43:07;98470.38;;;19.95;37.26
19150;BME280;9707;49.158;8.632;2024-02-26T04:45:33;98472.25;;;19.94;37.03
19150;BME280;9707;49.158;8.632;2024-02-26T04:47:59;98475.13;;;19.93;37.24
19150;BME280;9707;49.158;8.632;2024-02-26T04:50:24;98484.25;;;19.92;37.11
19150;BME280;9707;49.158;8.632;2024-02-26T04:52:50;98490.66;;;19.91;36.90
19150;BME280;9707;49.158;8.632;2024-02-26T04:55:18;98489.13;;;19.88;37.11
19150;BME280;9707;49.158;8.632;2024-02-26T04:57:43;98485.56;;;19.88;37.56
19150;BME280;9707;49.158;8.632;2024-02-26T05:00:09;98488.44;;;19.86;37.40
19150;BME280;9707;49.158;8.632;2024-02-26T05:02:35;98495.53;;;19.87;37.09
19150;BME280;9707;49.158;8.632;2024-02-26T05:05:06;98496.53;;;19.86;37.59
19150;BME280;9707;49.158;8.632;2024-02-26T05:07:31;98496.69;;;19.85;37.08
19150;BME280;9707;49.158;8.632;2024-02-26T05:09:57;98489.59;;;19.84;37.67
19150;BME280;9707;49.158;8.632;2024-02-26T05:12:22;98492.31;;;19.84;37.39
19150;BME280;9707;49.158;8.632;2024-02-26T05:14:47;98497.72;;;19.84;36.90
19150;BME280;9707;49.158;8.632;2024-02-26T05:17:13;98496.19;;;19.81;37.10
19150;BME280;9707;49.158;8.632;2024-02-26T05:19:38;98498.88;;;19.81;37.86
19150;BME280;9707;49.158;8.632;2024-02-26T05:22:03;98502.28;;;19.83;38.17
19150;BME280;9707;49.158;8.632;2024-02-26T05:24:28;98505.50;;;19.87;37.90
19150;BME280;9707;49.158;8.632;2024-02-26T05:26:54;98514.44;;;19.87;36.99
19150;BME280;9707;49.158;8.632;2024-02-26T05:29:20;98517.31;;;19.86;37.32
19150;BME280;9707;49.158;8.632;2024-02-26T05:31:45;98524.72;;;19.84;37.76
19150;BME280;9707;49.158;8.632;2024-02-26T05:34:11;98528.13;;;19.86;37.86
19150;BME280;9707;49.158;8.632;2024-02-26T05:36:36;98524.41;;;19.87;37.67
19150;BME280;9707;49.158;8.632;2024-02-26T05:39:01;98533.19;;;19.89;37.70
19150;BME280;9707;49.158;8.632;2024-02-26T05:41:27;98533.19;;;19.89;37.59
19150;BME280;9707;49.158;8.632;2024-02-26T05:43:53;98544.00;;;19.89;37.63
19150;BME280;9707;49.158;8.632;2024-02-26T05:46:19;98551.09;;;19.90;37.62
19150;BME280;9707;49.158;8.632;2024-02-26T05:48:47;98549.25;;;19.90;37.90
19150;BME280;9707;49.158;8.632;2024-02-26T05:51:13;98555.31;;;19.92;37.65
19150;BME280;9707;49.158;8.632;2024-02-26T05:53:38;98550.78;;;19.93;37.78
19150;BME280;9707;49.158;8.632;2024-02-26T05:56:04;98559.56;;;19.95;37.72
19150;BME280;9707;49.158;8.632;2024-02-26T05:58:29;98560.28;;;19.97;37.47
19150;BME280;9707;49.158;8.632;2024-02-26T06:00:54;98558.41;;;19.97;37.65
19150;BME280;9707;49.158;8.632;2024-02-26T06:03:19;98563.78;;;19.97;37.59
19150;BME280;9707;49.158;8.632;2024-02-26T06:05:46;98564.66;;;19.98;37.41
19150;BME280;9707;49.158;8.632;2024-02-26T06:08:11;98568.22;;;19.98;37.48
19150;BME280;9707;49.158;8.632;2024-02-26T06:10:36;98571.75;;;19.99;37.60
19150;BME280;9707;49.158;8.632;2024-02-26T06:13:01;98573.63;;;19.98;36.64
19150;BME280;9707;49.158;8.632;2024-02-26T06:15:27;98576.63;;;19.95;37.43
19150;BME280;9707;49.158;8.632;2024-02-26T06:17:52;98582.91;;;19.96;37.68
19150;BME280;9707;49.158;8.632;2024-02-26T06:20:17;98584.59;;;19.97;37.67
19150;BME280;9707;49.158;8.632;2024-02-26T06:22:43;98583.72;;;19.96;36.54
19150;BME280;9707;49.158;8.632;2024-02-26T06:25:08;98588.63;;;19.93;37.61
19150;BME280;9707;49.158;8.632;2024-02-26T06:27:34;98590.31;;;19.94;37.94
19150;BME280;9707;49.158;8.632;2024-02-26T06:30:00;98589.28;;;19.95;37.71
19150;BME280;9707;49.158;8.632;2024-02-26T06:32:25;98594.53;;;19.96;38.01
19150;BME280;9707;49.158;8.632;2024-02-26T06:34:52;98592.69;;;19.97;37.68
19150;BME280;9707;49.158;8.632;2024-02-26T06:37:18;98597.09;;;19.98;37.83
19150;BME280;9707;49.158;8.632;2024-02-26T06:39:43;98602.50;;;19.98;37.73
19150;BME280;9707;49.158;8.632;2024-02-26T06:42:08;98601.63;;;19.97;37.79
19150;BME280;9707;49.158;8.632;2024-02-26T06:44:33;98604.19;;;19.99;37.84
19150;BME280;9707;49.158;8.632;2024-02-26T06:46:59;98608.56;;;20.00;37.58
19150;BME280;9707;49.158;8.632;2024-02-26T06:49:25;98605.88;;;20.00;37.58
19150;BME280;9707;49.158;8.632;2024-02-26T06:51:50;98609.59;;;19.99;37.67
19150;BME280;9707;49.158;8.632;2024-02-26T06:54:16;98606.22;;;19.97;37.78
19150;BME280;9707;49.158;8.632;2024-02-26T06:56:41;98605.34;;;19.96;37.64
19150;BME280;9707;49.158;8.632;2024-02-26T06:59:06;98612.28;;;19.99;37.59
19150;BME280;9707;49.158;8.632;2024-02-26T07:01:31;98619.56;;;19.98;37.52
19150;BME280;9707;49.158;8.632;2024-02-26T07:03:56;98620.41;;;19.99;37.69
19150;BME280;9707;49.158;8.632;2024-02-26T07:06:22;98618.56;;;19.99;37.74
19150;BME280;9707;49.158;8.632;2024-02-26T07:08:47;98624.78;;;20.00;37.31
19150;BME280;9707;49.158;8.632;2024-02-26T07:11:12;98623.25;;;19.97;37.22
19150;BME280;9707;49.158;8.632;2024-02-26T07:13:38;98634.25;;;19.96;37.17
19150;BME280;9707;49.158;8.632;2024-02-26T07:16:04;98635.56;;;19.92;36.90
19150;BME280;9707;49.158;8.632;2024-02-26T07:18:29;98633.16;;;19.89;37.46
19150;BME280;9707;49.158;8.632;2024-02-26T07:20:54;98633.50;;;19.86;37.62
19150;BME280;9707;49.158;8.632;2024-02-26T07:23:20;98639.91;;;19.85;36.91
19150;BME280;9707;49.158;8.632;2024-02-26T07:25:46;98640.22;;;19.82;36.98
19150;BME280;9707;49.158;8.632;2024-02-26T07:28:14;98641.41;;;19.79;36.99
19150;BME280;9707;49.158;8.632;2024-02-26T07:30:39;98640.53;;;19.79;37.28
19150;BME280;9707;49.158;8.632;2024-02-26T07:33:04;98637.31;;;19.75;37.68
19150;BME280;9707;49.158;8.632;2024-02-26T07:35:29;98635.47;;;19.76;37.90
19150;BME280;9707;49.158;8.632;2024-02-26T07:37:55;98641.88;;;19.75;36.98
19150;BME280;9707;49.158;8.632;2024-02-26T07:40:20;98643.06;;;19.72;37.12
19150;BME280;9707;49.158;8.632;2024-02-26T07:42:45;98638.81;;;19.70;37.72
19150;BME280;9707;49.158;8.632;2024-02-26T07:45:11;98637.28;;;19.67;37.62
19150;BME280;9707;49.158;8.632;2024-02-26T07:47:36;98645.53;;;19.66;37.44
19150;BME280;9707;49.158;8.632;2024-02-26T07:50:03;98641.28;;;19.63;37.24
19150;BME280;9707;49.158;8.632;2024-02-26T07:52:28;98638.88;;;19.60;37.17
19150;BME280;9707;49.158;8.632;2024-02-26T07:54:53;98634.81;;;19.56;37.42
19150;BME280;9707;49.158;8.632;2024-02-26T07:57:18;98638.38;;;19.57;38.01
19150;BME280;9707;49.158;8.632;2024-02-26T08:03:07;98646.94;;;19.52;38.04
19150;BME280;9707;49.158;8.632;2024-02-26T08:05:33;98641.38;;;19.54;38.74
19150;BME280;9707;49.158;8.632;2024-02-26T08:07:58;98636.69;;;19.56;38.92
19150;BME280;9707;49.158;8.632;2024-02-26T08:10:23;98636.19;;;19.60;38.88
19150;BME280;9707;49.158;8.632;2024-02-26T08:12:48;98647.38;;;19.65;38.41
19150;BME280;9707;49.158;8.632;2024-02-26T08:15:14;98641.97;;;19.65;38.22
19150;BME280;9707;49.158;8.632;2024-02-26T08:17:39;98640.28;;;19.64;37.69
19150;BME280;9707;49.158;8.632;2024-02-26T08:20:05;98643.84;;;19.65;37.79
19150;BME280;9707;49.158;8.632;2024-02-26T08:22:30;98640.13;;;19.66;38.33
19150;BME280;9707;49.158;8.632;2024-02-26T08:24:55;98642.69;;;19.67;38.65
19150;BME280;9707;49.158;8.632;2024-02-26T08:27:21;98638.81;;;19.70;38.15
19150;BME280;9707;49.158;8.632;2024-02-26T08:29:46;98645.75;;;19.72;38.33
19150;BME280;9707;49.158;8.632;2024-02-26T08:32:11;98645.56;;;19.74;38.53
19150;BME280;9707;49.158;8.632;2024-02-26T08:34:36;98650.00;;;19.75;38.20
19150;BME280;9707;49.158;8.632;2024-02-26T08:37:02;98648.97;;;19.76;38.65
19150;BME280;9707;49.158;8.632;2024-02-26T08:39:27;98645.25;;;19.77;38.60
19150;BME280;9707;49.158;8.632;2024-02-26T08:41:53;98660.31;;;19.79;38.25
19150;BME280;9707;49.158;8.632;2024-02-26T08:44:18;98653.03;;;19.80;38.34
19150;BME280;9707;49.158;8.632;2024-02-26T08:46:43;98658.44;;;19.80;38.35
19150;BME280;9707;49.158;8.632;2024-02-26T08:49:10;98660.16;;;19.81;38.44
19150;BME280;9707;49.158;8.632;2024-02-26T08:51:41;98666.22;;;19.83;38.44
19150;BME280;9707;49.158;8.632;2024-02-26T08:54:07;98666.09;;;19.84;38.81
19150;BME280;9707;49.158;8.632;2024-02-26T08:56:32;98672.00;;;19.88;38.69
19150;BME280;9707;49.158;8.632;2024-02-26T08:58:57;98673.41;;;19.92;38.65
19150;BME280;9707;49.158;8.632;2024-02-26T09:01:24;98669.38;;;19.96;38.43
19150;BME280;9707;49.158;8.632;2024-02-26T09:03:49;98672.06;;;19.96;38.27
19150;BME280;9707;49.158;8.632;2024-02-26T09:06:15;98675.47;;;19.98;38.51
19150;BME280;9707;49.158;8.632;2024-02-26T09:08:40;98676.13;;;20.00;38.51
19150;BME280;9707;49.158;8.632;2024-02-26T09:11:05;98673.28;;;20.01;38.52
19150;BME280;9707;49.158;8.632;2024-02-26T09:13:31;98672.09;;;20.04;38.48
19150;BME280;9707;49.158;8.632;2024-02-26T09:15:57;98678.94;;;20.08;38.35
19150;BME280;9707;49.158;8.632;2024-02-26T09:18:22;98684.34;;;20.08;37.86
19150;BME280;9707;49.158;8.632;2024-02-26T09:20:47;98689.75;;;20.08;37.93
19150;BME280;9707;49.158;8.632;2024-02-26T09:23:13;98689.75;;;20.08;38.36
19150;BME280;9707;49.158;8.632;2024-02-26T09:25:38;98687.03;;;20.08;38.28
19150;BME280;9707;49.158;8.632;2024-02-26T09:28:03;98685.19;;;20.08;37.99
19150;BME280;9707;49.158;8.632;2024-02-26T09:30:29;98684.34;;;20.08;38.42
19150;BME280;9707;49.158;8.632;2024-02-26T09:32:54;98681.47;;;20.09;37.89
19150;BME280;9707;49.158;8.632;2024-02-26T09:35:19;98691.44;;;20.09;38.01
19150;BME280;9707;49.158;8.632;2024-02-26T09:37:46;98694.13;;;20.09;38.30
19150;BME280;9707;49.158;8.632;2024-02-26T09:40:11;98690.59;;;20.08;38.42
19150;BME280;9707;49.158;8.632;2024-02-26T09:42:37;98700.25;;;20.11;38.64
19150;BME280;9707;49.158;8.632;2024-02-26T09:45:05;98691.81;;;20.14;38.31
19150;BME280;9707;49.158;8.632;2024-02-26T09:47:35;98694.19;;;20.17;38.37
19150;BME280;9707;49.158;8.632;2024-02-26T09:50:01;98697.56;;;20.19;38.39
19150;BME280;9707;49.158;8.632;2024-02-26T09:52:28;98696.56;;;20.20;38.38
19150;BME280;9707;49.158;8.632;2024-02-26T09:54:56;98697.28;;;20.22;38.26
19150;BME280;9707;49.158;8.632;2024-02-26T09:57:21;98697.94;;;20.24;38.46
19150;BME280;9707;49.158;8.632;2024-02-26T09:59:51;98698.66;;;20.26;37.72
19150;BME280;9707;49.158;8.632;2024-02-26T10:02:19;98701.16;;;20.27;38.23
19150;BME280;9707;49.158;8.632;2024-02-26T10:04:46;98696.47;;;20.29;37.99
19150;BME280;9707;49.158;8.632;2024-02-26T10:07:13;98705.25;;;20.31;37.96
19150;BME280;9707;49.158;8.632;2024-02-26T10:09:39;98699.00;;;20.31;37.84
19150;BME280;9707;49.158;8.632;2024-02-26T10:12:07;98700.72;;;20.32;37.71
19150;BME280;9707;49.158;8.632;2024-02-26T10:14:33;98700.00;;;20.30;37.92
19150;BME280;9707;49.158;8.632;2024-02-26T10:16:59;98705.25;;;20.31;38.05
19150;BME280;9707;49.158;8.632;2024-02-26T10:19:27;98710.19;;;20.36;37.64
19150;BME280;9707;49.158;8.632;2024-02-26T10:21:57;98710.19;;;20.36;37.76
19150;BME280;9707;49.158;8.632;2024-02-26T10:24:23;98716.59;;;20.35;37.94
19150;BME280;9707;49.158;8.632;2024-02-26T10:26:48;98720.69;;;20.39;38.14
19150;BME280;9707;49.158;8.632;2024-02-26T10:29:14;98721.53;;;20.39;37.86
19150;BME280;9707;49.158;8.632;2024-02-26T10:31:42;98713.28;;;20.41;37.80
19150;BME280;9707;49.158;8.632;2024-02-26T10:34:07;98718.34;;;20.44;38.00
19150;BME280;9707;49.158;8.632;2024-02-26T10:36:35;98715.47;;;20.45;38.03
19150;BME280;9707;49.158;8.632;2024-02-26T10:39:03;98708.91;;;20.48;37.61
19150;BME280;9707;49.158;8.632;2024-02-26T10:41:29;98713.13;;;20.50;37.84
19150;BME280;9707;49.158;8.632;2024-02-26T10:43:55;98712.13;;;20.51;37.88
19150;BME280;9707;49.158;8.632;2024-02-26T10:46:20;98715.69;;;20.52;37.87
19150;BME280;9707;49.158;8.632;2024-02-26T10:48:52;98719.06;;;20.54;37.91
19150;BME280;9707;49.158;8.632;2024-02-26T10:51:28;98722.44;;;20.56;37.77
19150;BME280;9707;49.158;8.632;2024-02-26T10:53:58;98732.28;;;20.57;37.76
19150;BME280;9707;49.158;8.632;2024-02-26T10:56:26;98738.38;;;20.59;37.83
19150;BME280;9707;49.158;8.632;2024-02-26T10:58:55;98744.63;;;20.59;37.82
19150;BME280;9707;49.158;8.632;2024-02-26T11:01:21;98745.16;;;20.63;37.92
19150;BME280;9707;49.158;8.632;2024-02-26T11:03:51;98742.28;;;20.64;37.78
19150;BME280;9707;49.158;8.632;2024-02-26T11:06:17;98740.41;;;20.65;37.52
19150;BME280;9707;49.158;8.632;2024-02-26T11:08:43;98748.22;;;20.68;37.76
19150;BME280;9707;49.158;8.632;2024-02-26T11:11:10;98746.53;;;20.67;37.80
19150;BME280;9707;49.158;8.632;2024-02-26T11:13:40;98742.66;;;20.69;37.52
19150;BME280;9707;49.158;8.632;2024-02-26T11:16:09;98749.59;;;20.72;37.26
19150;BME280;9707;49.158;8.632;2024-02-26T11:18:35;98737.06;;;20.71;37.47
19150;BME280;9707;49.158;8.632;2024-02-26T11:21:02;98737.91;;;20.71;37.37
19150;BME280;9707;49.158;8.632;2024-02-26T11:23:28;98740.47;;;20.73;37.06
19150;BME280;9707;49.158;8.632;2024-02-26T11:25:55;98734.91;;;20.74;37.56
19150;BME280;9707;49.158;8.632;2024-02-26T11:28:25;98745.72;;;20.74;37.53
19150;BME280;9707;49.158;8.632;2024-02-26T11:30:53;98747.25;;;20.77;37.29
19150;BME280;9707;49.158;8.632;2024-02-26T11:33:19;98741.66;;;20.78;37.56
19150;BME280;9707;49.158;8.632;2024-02-26T11:35:45;98739.81;;;20.79;37.21
19150;BME280;9707;49.158;8.632;2024-02-26T11:38:19;98738.78;;;20.80;37.70
19150;BME280;9707;49.158;8.632;2024-02-26T11:40:46;98735.94;;;20.81;37.41
19150;BME280;9707;49.158;8.632;2024-02-26T11:43:12;98725.97;;;20.82;37.45
19150;BME280;9707;49.158;8.632;2024-02-26T11:48:20;98717.50;;;20.85;37.16
19150;BME280;9707;49.158;8.632;2024-02-26T11:50:52;98722.91;;;20.85;37.47
19150;BME280;9707;49.158;8.632;2024-02-26T11:53:30;98730.00;;;20.86;37.32
19150;BME280;9707;49.158;8.632;2024-02-26T11:58:44;98732.72;;;20.86;36.75
19150;BME280;9707;49.158;8.632;2024-02-26T12:01:41;98739.16;;;20.85;37.11
19150;BME280;9707;49.158;8.632;2024-02-26T12:04:11;98742.88;;;20.84;37.61
19150;BME280;9707;49.158;8.632;2024-02-26T12:06:41;98740.69;;;20.87;37.59
19150;BME280;9707;49.158;8.632;2024-02-26T12:09:07;98745.94;;;20.89;37.62
19150;BME280;9707;49.158;8.632;2024-02-26T12:11:37;98732.13;;;20.92;37.78
19150;BME280;9707;49.158;8.632;2024-02-26T12:14:03;98738.06;;;20.95;37.45
19150;BME280;9707;49.158;8.632;2024-02-26T12:16:36;98739.59;;;20.98;37.22
19150;BME280;9707;49.158;8.632;2024-02-26T12:19:07;98747.53;;;20.99;37.17
19150;BME280;9707;49.158;8.632;2024-02-26T12:21:34;98760.06;;;21.00;36.98
19150;BME280;9707;49.158;8.632;2024-02-26T12:24:13;98755.47;;;21.01;36.37
19150;BME280;9707;49.158;8.632;2024-02-26T12:26:40;98760.88;;;21.01;37.05
19150;BME280;9707;49.158;8.632;2024-02-26T12:29:07;98752.78;;;21.01;36.63
19150;BME280;9707;49.158;8.632;2024-02-26T12:31:33;98753.47;;;21.03;36.66
19150;BME280;9707;49.158;8.632;2024-02-26T12:33:59;98747.03;;;21.04;36.34
19150;BME280;9707;49.158;8.632;2024-02-26T12:36:25;98743.47;;;21.03;37.09
19150;BME280;9707;49.158;8.632;2024-02-26T12:38:51;98746.88;;;21.05;36.32
19150;BME280;9707;49.158;8.632;2024-02-26T12:41:16;98752.31;;;21.05;35.40
19150;BME280;9707;49.158;8.632;2024-02-26T12:43:42;98752.47;;;21.04;35.70
19150;BME280;9707;49.158;8.632;2024-02-26T12:46:07;98753.47;;;21.03;35.80
19150;BME280;9707;49.158;8.632;2024-02-26T12:48:33;98750.78;;;21.03;35.16
19150;BME280;9707;49.158;8.632;2024-02-26T12:50:58;98758.88;;;21.03;34.53
19150;BME280;9707;49.158;8.632;2024-02-26T12:53:25;98756.34;;;21.01;34.51
19150;BME280;9707;49.158;8.632;2024-02-26T12:55:50;98760.06;;;21.00;34.24
19150;BME280;9707;49.158;8.632;2024-02-26T12:58:16;98760.88;;;21.01;34.53
19150;BME280;9707;49.158;8.632;2024-02-26T13:00:41;98761.75;;;21.01;35.38
19150;BME280;9707;49.158;8.632;2024-02-26T13:03:07;98762.63;;;21.02;34.81
19150;BME280;9707;49.158;8.632;2024-02-26T13:05:32;98759.72;;;21.03;34.72
19150;BME280;9707;49.158;8.632;2024-02-26T13:07:58;98756.19;;;21.03;34.37
19150;BME280;9707;49.158;8.632;2024-02-26T13:10:24;98761.59;;;21.03;34.58
19150;BME280;9707;49.158;8.632;2024-02-26T13:12:50;98757.19;;;21.02;34.25